»·PEaware :: DCM180 KLAX-KSJC

DCM180 :: KLAX-KSJC

FLIGHT INFORMATION

Flight Status: Arrived
Operator:
DotCom
More flights by this operator :: More flights under this callsign
Pilot: Etienne B. (28927)
Aircraft: AIRBUS A320
(A320)
More flights by this aircraft type
Origin: KLAX Los Angeles Intl
United States
Destination: KSJC Mineta San Jose Intl
United States
More flights between these airports :: More routes between these airports
Route: SUMMR2 SCTRR TROXX SILCN4
File this flight plan on PilotEdge
Remarks: RMK / SIMBRIEF
Altitude:
(Current/Filed)
36,000ft
Speed:
(Current/Filed)
444kts
Departed: 04-May-20 04:00 PM
Arrived: 04-May-20 04:52 PM
Distance/Time
Traveled:
268nm/0:52
Distance/Time
To Go:
Arrived

Flight Plot

Page will automatically refresh every two minutes.

Flight plan parsing failed; only flown route is shown


Map Options




Map Legend


Flown Route
Filed Route
Departure Airport
Arrival Airport
Navaid (VOR, NDB)
Fix

Horizontal Profiles

Position Reports

Time Latitude Longitude Heading Altitude Ground
Speed
04-May-20 15:39 33.946031 -118.406511 303 127ft 0kts
04-May-20 15:40 33.946031 -118.406511 303 127ft 0kts
04-May-20 15:41 33.946031 -118.406511 303 127ft 0kts
04-May-20 15:42 33.946031 -118.406511 303 127ft 0kts
04-May-20 15:43 33.946031 -118.406511 303 127ft 0kts
04-May-20 15:44 33.946031 -118.406511 303 127ft 0kts
04-May-20 15:45 33.946031 -118.406511 303 127ft 0kts
04-May-20 15:46 33.946031 -118.406511 303 127ft 0kts
04-May-20 15:47 33.946031 -118.406511 304 127ft 0kts
04-May-20 15:48 33.946031 -118.406511 303 127ft 0kts
04-May-20 15:50 33.946031 -118.406511 303 127ft 0kts
04-May-20 15:51 33.945981 -118.406418 301 126ft 2kts
04-May-20 15:52 33.945663 -118.405838 304 126ft 2kts
04-May-20 15:53 33.945551 -118.405720 353 126ft 0kts
04-May-20 15:54 33.945557 -118.405721 353 126ft 0kts
04-May-20 15:55 33.947060 -118.405961 353 126ft 0kts
04-May-20 15:56 33.947060 -118.405961 353 126ft 0kts
04-May-20 15:57 33.948344 -118.405995 11 127ft 9kts
04-May-20 15:58 33.949187 -118.400659 85 121ft 22kts
04-May-20 15:59 33.949824 -118.399092 5 119ft 9kts
04-May-20 16:00 33.948642 -118.416903 263 127ft 156kts
04-May-20 16:01 33.942740 -118.477337 263 2320ft 196kts
04-May-20 16:02 33.937333 -118.550410 266 4199ft 256kts
04-May-20 16:03 33.931598 -118.637938 266 5039ft 264kts
04-May-20 16:04 33.925117 -118.726716 265 6311ft 275kts
04-May-20 16:05 33.917923 -118.820332 265 9022ft 287kts
04-May-20 16:06 33.919621 -118.919633 272 10978ft 321kts
04-May-20 16:07 33.930175 -119.031251 299 12869ft 344kts
04-May-20 16:07 33.972237 -119.113021 301 14715ft 349kts
04-May-20 16:09 34.045508 -119.216944 322 16987ft 360kts
04-May-20 16:09 34.113970 -119.275678 321 18450ft 366kts
04-May-20 16:10 34.197365 -119.347538 321 20057ft 373kts
04-May-20 16:11 34.282298 -119.420894 320 21522ft 379kts
04-May-20 16:12 34.368735 -119.495735 320 22851ft 385kts
04-May-20 16:13 34.454897 -119.573701 318 24061ft 390kts
04-May-20 16:14 34.540782 -119.654655 317 25175ft 395kts
04-May-20 16:15 34.627903 -119.736997 317 26256ft 400kts
04-May-20 16:16 34.716242 -119.820722 316 27240ft 405kts
04-May-20 16:17 34.805464 -119.905521 316 28138ft 410kts
04-May-20 16:18 34.895825 -119.991648 316 28948ft 415kts
04-May-20 16:19 34.987579 -120.079359 314 29468ft 426kts
04-May-20 16:20 35.082056 -120.169933 313 30045ft 434kts
04-May-20 16:21 35.176662 -120.260703 315 30874ft 434kts
04-May-20 16:22 35.272410 -120.348182 314 31946ft 425kts
04-May-20 16:23 35.365935 -120.433939 314 32859ft 418kts
04-May-20 16:24 35.458275 -120.518851 314 33652ft 412kts
04-May-20 16:25 35.550799 -120.600811 318 34288ft 414kts
04-May-20 16:26 35.647405 -120.676492 317 34871ft 410kts
04-May-20 16:27 35.740200 -120.749462 317 36135ft 392kts
04-May-20 16:28 35.834066 -120.823508 317 34977ft 415kts
04-May-20 16:29 35.930922 -120.899990 318 30858ft 422kts
04-May-20 16:30 36.027364 -120.979402 314 27280ft 405kts
04-May-20 16:31 36.111353 -121.059288 314 25492ft 364kts
04-May-20 16:32 36.190411 -121.134629 315 23808ft 354kts
04-May-20 16:33 36.267124 -121.207901 316 22144ft 343kts
04-May-20 16:34 36.341536 -121.279160 317 20480ft 334kts
04-May-20 16:35 36.414330 -121.349214 318 18756ft 330kts
04-May-20 16:36 36.486401 -121.418780 319 17024ft 327kts
04-May-20 16:37 36.571257 -121.461286 338 15294ft 330kts
04-May-20 16:38 36.657389 -121.497682 339 13578ft 326kts
04-May-20 16:39 36.742843 -121.533865 340 11858ft 323kts
04-May-20 16:40 36.827044 -121.569633 340 10258ft 316kts
04-May-20 16:41 36.906201 -121.603362 340 9260ft 293kts
04-May-20 16:42 36.982486 -121.635752 340 7871ft 287kts
04-May-20 16:43 37.057426 -121.667578 340 6527ft 281kts
04-May-20 16:44 37.130638 -121.698745 340 5259ft 273kts
04-May-20 16:45 37.192624 -121.743092 317 4283ft 244kts
04-May-20 16:46 37.238706 -121.794799 317 3080ft 194kts
04-May-20 16:47 37.274251 -121.832041 315 2135ft 149kts
04-May-20 16:48 37.302505 -121.863712 319 1465ft 139kts
04-May-20 16:49 37.330256 -121.894489 319 736ft 136kts
04-May-20 16:50 37.356406 -121.923030 319 81ft 131kts
04-May-20 16:51 37.364985 -121.931427 18 52ft 0kts
04-May-20 16:52 37.365745 -121.930705 46 50ft 10kts
04-May-20 16:53 37.367493 -121.928152 46 47ft 0kts

Navigation Log

Ident Type
Flight plan parsing failed, navigation log unavailable